createdAt,value
2022-08-06T00:00:08.162Z,101010.34
2022-08-06T00:03:01.897Z,101014.88
2022-08-06T00:06:06.779Z,101015.47
2022-08-06T00:09:15.626Z,101025.53
2022-08-06T00:12:19.580Z,101014.28
2022-08-06T00:16:06.278Z,101009.31
2022-08-06T00:18:48.315Z,101014.25
2022-08-06T00:21:54.665Z,101014.63
2022-08-06T00:24:59.255Z,101010.44
2022-08-06T00:28:09.818Z,101008.06
2022-08-06T00:31:15.451Z,101003.91
2022-08-06T00:34:20.414Z,100995.00
2022-08-06T00:37:28.905Z,101011.34
2022-08-06T00:40:58.536Z,101011.53
2022-08-06T00:44:04.262Z,101015.63
2022-08-06T00:47:23.406Z,101007.53
2022-08-06T00:50:33.009Z,101010.84
2022-08-06T00:53:37.983Z,101017.09
2022-08-06T00:56:42.061Z,101015.91
2022-08-06T00:59:48.325Z,101007.97
2022-08-06T01:02:56.135Z,101008.16
2022-08-06T01:06:07.114Z,101016.25
2022-08-06T01:09:24.568Z,101023.47
2022-08-06T01:12:33.871Z,101028.81
2022-08-06T01:16:07.430Z,101031.00
2022-08-06T01:19:50.975Z,101039.66
2022-08-06T01:23:32.642Z,101039.75
2022-08-06T01:26:47.410Z,101056.50
2022-08-06T01:30:05.973Z,101055.72
2022-08-06T01:33:24.951Z,101056.50
2022-08-06T01:37:00.051Z,101052.88
2022-08-06T01:40:09.758Z,101063.84
2022-08-06T01:44:05.027Z,101067.38
2022-08-06T01:46:45.542Z,101072.25
2022-08-06T01:50:00.773Z,101062.75
2022-08-06T01:53:15.712Z,101070.44
2022-08-06T01:56:25.936Z,101080.31
2022-08-06T01:59:38.949Z,101080.31
2022-08-06T02:02:46.423Z,101076.34
2022-08-06T02:05:54.457Z,101088.38
2022-08-06T02:09:22.093Z,101077.28
2022-08-06T02:12:31.395Z,101077.81
2022-08-06T02:15:58.903Z,101094.34
2022-08-06T02:19:10.357Z,101103.03
2022-08-06T02:22:26.829Z,101109.81
2022-08-06T02:25:34.423Z,101113.03
2022-08-06T02:28:40.445Z,101116.38
2022-08-06T02:31:50.347Z,101126.63
2022-08-06T02:34:55.962Z,101130.97
2022-08-06T02:38:07.976Z,101139.44
2022-08-06T02:41:38.231Z,101143.78
2022-08-06T02:44:53.419Z,101146.25
2022-08-06T02:48:09.246Z,101144.47
2022-08-06T02:51:43.909Z,101149.72
2022-08-06T02:54:58.574Z,101150.56
2022-08-06T02:58:15.257Z,101156.31
2022-08-06T03:01:24.503Z,101164.00
2022-08-06T03:04:33.289Z,101168.66
2022-08-06T03:07:41.033Z,101165.06
2022-08-06T03:10:46.180Z,101155.56
2022-08-06T03:13:52.181Z,101159.88
2022-08-06T03:16:58.302Z,101158.63
2022-08-06T03:20:04.495Z,101160.56
2022-08-06T03:23:12.429Z,101164.19
2022-08-06T03:26:16.727Z,101168.41
2022-08-06T03:29:26.186Z,101171.91
2022-08-06T03:32:52.242Z,101180.25
2022-08-06T03:36:00.640Z,101184.72
2022-08-06T03:39:08.517Z,101191.88
2022-08-06T03:42:14.140Z,101198.13
2022-08-06T03:45:23.894Z,101187.78
2022-08-06T03:48:42.409Z,101197.06
2022-08-06T03:51:54.535Z,101203.94
2022-08-06T03:55:04.806Z,101218.50
2022-08-06T03:58:12.501Z,101236.25
2022-08-06T04:01:49.932Z,101239.78
2022-08-06T04:04:55.768Z,101236.75
2022-08-06T04:08:05.444Z,101240.97
2022-08-06T04:12:11.004Z,101236.81
2022-08-06T04:14:36.376Z,101247.03
2022-08-06T04:17:47.833Z,101245.28
2022-08-06T04:21:17.003Z,101256.63
2022-08-06T04:24:20.210Z,101261.56
2022-08-06T04:27:30.679Z,101256.28
2022-08-06T04:30:36.459Z,101265.72
2022-08-06T04:33:47.213Z,101269.09
2022-08-06T04:36:58.612Z,101280.28
2022-08-06T04:40:03.858Z,101278.69
2022-08-06T04:43:10.678Z,101279.50
2022-08-06T04:46:19.639Z,101286.81
2022-08-06T04:49:57.452Z,101300.84
2022-08-06T04:52:49.905Z,101300.75
2022-08-06T04:56:03.746Z,101302.38
2022-08-06T04:59:08.251Z,101311.16
2022-08-06T05:02:12.878Z,101315.75
2022-08-06T05:05:21.229Z,101310.53
2022-08-06T05:08:28.937Z,101311.94
2022-08-06T05:11:41.674Z,101318.53
2022-08-06T05:15:27.261Z,101320.66
2022-08-06T05:19:20.955Z,101328.66
2022-08-06T05:22:05.238Z,101320.81
2022-08-06T05:25:22.756Z,101335.22
2022-08-06T05:28:32.321Z,101334.25
2022-08-06T05:31:40.533Z,101337.16
2022-08-06T05:34:51.600Z,101345.97
2022-08-06T05:38:01.870Z,101348.22
2022-08-06T05:41:10.842Z,101346.88
2022-08-06T05:44:15.362Z,101351.75
2022-08-06T05:47:24.396Z,101362.13
2022-08-06T05:50:33.662Z,101358.09
2022-08-06T05:54:03.849Z,101356.13
2022-08-06T05:57:16.577Z,101359.41
2022-08-06T06:00:41.547Z,101366.00
2022-08-06T06:03:48.881Z,101368.84
2022-08-06T06:06:55.273Z,101361.59
2022-08-06T06:10:03.886Z,101367.00
2022-08-06T06:13:24.892Z,101369.34
2022-08-06T06:17:02.151Z,101374.59
2022-08-06T06:20:58.425Z,101373.25
2022-08-06T06:23:55.411Z,101375.59
2022-08-06T06:27:35.601Z,101381.19
2022-08-06T06:31:02.185Z,101375.81
2022-08-06T06:34:12.155Z,101372.53
2022-08-06T06:37:40.696Z,101375.53
2022-08-06T06:41:00.307Z,101377.56
2022-08-06T06:44:49.387Z,101376.91
2022-08-06T06:48:00.904Z,101378.41
2022-08-06T06:51:27.241Z,101384.94
2022-08-06T06:54:43.048Z,101384.56
2022-08-06T06:57:57.137Z,101385.09
2022-08-06T07:01:11.953Z,101392.41
2022-08-06T07:04:19.831Z,101384.81
2022-08-06T07:07:25.150Z,101378.59
2022-08-06T07:10:31.617Z,101384.25
2022-08-06T07:13:48.101Z,101393.25
2022-08-06T07:16:57.473Z,101389.03
2022-08-06T07:20:08.454Z,101393.63
2022-08-06T07:24:06.998Z,101394.81
2022-08-06T07:26:48.056Z,101401.06
2022-08-06T07:30:00.284Z,101388.78
2022-08-06T07:33:05.516Z,101393.78
2022-08-06T07:36:17.345Z,101398.53
2022-08-06T07:39:34.238Z,101398.25
2022-08-06T07:42:40.231Z,101402.88
2022-08-06T07:45:54.733Z,101404.91
2022-08-06T07:49:05.682Z,101409.28
2022-08-06T07:52:17.910Z,101409.16
2022-08-06T07:55:26.489Z,101402.97
2022-08-06T07:58:45.712Z,101400.59
2022-08-06T08:01:50.675Z,101413.78
2022-08-06T08:05:13.562Z,101422.56
2022-08-06T08:08:21.076Z,101421.25
2022-08-06T08:11:37.733Z,101421.06
2022-08-06T08:14:54.146Z,101432.69
2022-08-06T08:17:59.100Z,101415.22
2022-08-06T08:21:04.347Z,101415.31
2022-08-06T08:24:12.671Z,101422.34
2022-08-06T08:27:21.812Z,101427.81
2022-08-06T08:30:27.332Z,101436.38
2022-08-06T08:33:36.548Z,101446.81
2022-08-06T08:36:41.097Z,101435.66
2022-08-06T08:39:45.287Z,101427.88
2022-08-06T08:42:55.179Z,101421.22
2022-08-06T08:46:03.536Z,101436.88
2022-08-06T08:49:12.289Z,101433.91
2022-08-06T08:52:29.030Z,101422.78
2022-08-06T08:57:08.860Z,101416.44
2022-08-06T08:59:17.737Z,101427.53
2022-08-06T09:02:28.138Z,101434.63
2022-08-06T09:05:34.536Z,101432.09
2022-08-06T09:08:59.632Z,101425.38
2022-08-06T09:12:19.626Z,101425.81
2022-08-06T09:15:28.294Z,101435.34
2022-08-06T09:18:36.977Z,101420.81
2022-08-06T09:21:43.496Z,101425.13
2022-08-06T09:24:47.764Z,101424.66
2022-08-06T09:27:51.891Z,101422.06
2022-08-06T09:31:10.671Z,101428.06
2022-08-06T09:34:53.039Z,101427.22
2022-08-06T09:38:06.277Z,101421.06
2022-08-06T09:41:15.379Z,101420.38
2022-08-06T09:44:35.623Z,101411.81
2022-08-06T09:47:42.466Z,101414.38
2022-08-06T09:50:51.635Z,101416.78
2022-08-06T09:54:21.940Z,101411.38
2022-08-06T09:57:33.277Z,101420.66
2022-08-06T10:00:39.984Z,101428.00
2022-08-06T10:04:04.859Z,101420.28
2022-08-06T10:07:08.963Z,101420.16
2022-08-06T10:10:28.597Z,101419.91
2022-08-06T10:13:44.356Z,101418.41
2022-08-06T10:17:11.103Z,101414.59
2022-08-06T10:20:19.270Z,101412.28
2022-08-06T10:23:24.458Z,101423.13
2022-08-06T10:26:33.566Z,101422.59
2022-08-06T10:30:01.910Z,101418.78
2022-08-06T10:33:22.569Z,101415.25
2022-08-06T10:36:35.252Z,101410.50
2022-08-06T10:40:06.996Z,101424.91
2022-08-06T10:43:12.512Z,101411.94
2022-08-06T10:46:17.145Z,101408.13
2022-08-06T10:50:26.938Z,101402.91
2022-08-06T10:52:47.873Z,101412.78
2022-08-06T10:55:51.913Z,101421.59
2022-08-06T10:58:56.378Z,101408.47
2022-08-06T11:02:09.162Z,101410.13
2022-08-06T11:05:21.046Z,101394.16
2022-08-06T11:08:59.464Z,101398.63
2022-08-06T11:12:35.479Z,101388.75
2022-08-06T11:15:43.128Z,101393.94
2022-08-06T11:19:18.440Z,101396.66
2022-08-06T11:22:43.275Z,101387.19
2022-08-06T11:26:03.573Z,101384.66
2022-08-06T11:29:10.805Z,101385.03
2022-08-06T11:32:48.963Z,101381.75
2022-08-06T11:35:54.990Z,101368.91
2022-08-06T11:39:15.793Z,101376.78
2022-08-06T11:42:41.769Z,101375.97
2022-08-06T11:46:31.577Z,101369.88
2022-08-06T11:49:48.352Z,101371.69
2022-08-06T11:52:52.450Z,101372.28
2022-08-06T11:56:06.414Z,101383.97
2022-08-06T11:59:15.374Z,101385.81
2022-08-06T12:02:44.585Z,101381.97
2022-08-06T12:05:56.694Z,101380.16
2022-08-06T12:09:11.890Z,101384.88
2022-08-06T12:12:26.582Z,101379.28
2022-08-06T12:15:59.922Z,101387.63
2022-08-06T12:18:56.151Z,101390.81
2022-08-06T12:22:00.541Z,101395.44
2022-08-06T12:25:11.161Z,101379.72
2022-08-06T12:28:18.778Z,101372.38
2022-08-06T12:31:36.058Z,101371.16
2022-08-06T12:34:58.249Z,101384.97
2022-08-06T12:38:03.498Z,101381.50
2022-08-06T12:41:11.006Z,101374.84
2022-08-06T12:44:20.313Z,101367.69
2022-08-06T12:48:03.794Z,101363.94
2022-08-06T12:51:11.181Z,101354.44
2022-08-06T12:54:26.237Z,101338.97
2022-08-06T12:57:58.212Z,101352.53
2022-08-06T13:00:58.378Z,101348.75
2022-08-06T13:04:08.777Z,101346.91
2022-08-06T13:07:15.737Z,101345.53
2022-08-06T13:10:35.121Z,101342.84
2022-08-06T13:14:13.914Z,101344.41
2022-08-06T13:17:18.979Z,101357.88
2022-08-06T13:20:45.043Z,101354.53
2022-08-06T13:23:53.295Z,101355.06
2022-08-06T13:26:58.660Z,101351.06
2022-08-06T13:30:32.460Z,101355.06
2022-08-06T13:33:31.911Z,101340.28
2022-08-06T13:36:43.205Z,101348.88
2022-08-06T13:39:54.015Z,101340.75
2022-08-06T13:42:59.797Z,101336.09
2022-08-06T13:46:07.051Z,101340.41
2022-08-06T13:49:15.417Z,101333.16
2022-08-06T13:52:19.513Z,101329.56
2022-08-06T13:55:26.029Z,101327.06
2022-08-06T13:58:30.666Z,101338.34
2022-08-06T14:01:45.853Z,101333.88
2022-08-06T14:04:51.072Z,101326.00
2022-08-06T14:07:55.489Z,101330.47
2022-08-06T14:10:59.723Z,101325.41
2022-08-06T14:14:04.069Z,101314.06
2022-08-06T14:17:09.495Z,101313.91
2022-08-06T14:20:19.433Z,101315.94
2022-08-06T14:23:39.952Z,101315.69
2022-08-06T14:26:45.050Z,101312.66
2022-08-06T14:30:26.933Z,101330.47
2022-08-06T14:33:19.428Z,101317.84
2022-08-06T14:36:35.997Z,101315.41
2022-08-06T14:39:59.036Z,101308.16
2022-08-06T14:43:23.754Z,101309.16
2022-08-06T14:46:31.870Z,101314.41
2022-08-06T14:49:51.868Z,101307.13
2022-08-06T14:52:56.120Z,101311.81
2022-08-06T14:56:08.295Z,101306.09
2022-08-06T14:59:12.486Z,101293.91
2022-08-06T15:02:18.239Z,101299.97
2022-08-06T15:05:40.807Z,101303.72
2022-08-06T15:08:49.044Z,101294.44
2022-08-06T15:12:00.174Z,101293.16
2022-08-06T15:15:09.168Z,101292.50
2022-08-06T15:18:54.091Z,101290.09
2022-08-06T15:21:51.136Z,101284.38
2022-08-06T15:25:00.923Z,101282.31
2022-08-06T15:28:07.507Z,101279.03
2022-08-06T15:31:14.738Z,101273.34
2022-08-06T15:34:20.560Z,101275.41
2022-08-06T15:37:52.892Z,101277.66
2022-08-06T15:40:56.640Z,101276.84
2022-08-06T15:44:00.971Z,101276.00
2022-08-06T15:47:05.538Z,101284.88
2022-08-06T15:50:09.841Z,101284.78
2022-08-06T15:53:23.378Z,101283.31
2022-08-06T15:56:39.112Z,101283.41
2022-08-06T15:59:55.298Z,101275.63
2022-08-06T16:02:59.664Z,101285.16
2022-08-06T16:06:16.703Z,101288.38
2022-08-06T16:09:30.028Z,101275.28
2022-08-06T16:12:44.628Z,101286.50
2022-08-06T16:15:52.109Z,101291.84
2022-08-06T16:18:56.680Z,101274.47
2022-08-06T16:22:02.602Z,101285.00
2022-08-06T16:25:08.204Z,101283.78
2022-08-06T16:28:17.157Z,101280.69
2022-08-06T16:31:37.701Z,101282.72
2022-08-06T16:34:57.139Z,101285.13
2022-08-06T16:38:01.594Z,101278.00
2022-08-06T16:41:05.882Z,101279.94
2022-08-06T16:44:12.961Z,101275.91
2022-08-06T16:47:17.543Z,101275.28
2022-08-06T16:50:26.152Z,101273.25
2022-08-06T16:54:08.125Z,101273.31
2022-08-06T16:56:56.258Z,101281.25
2022-08-06T17:00:06.057Z,101277.53
2022-08-06T17:03:11.137Z,101280.31
2022-08-06T17:06:17.266Z,101275.34
2022-08-06T17:09:21.898Z,101275.56
2022-08-06T17:12:26.596Z,101277.94
2022-08-06T17:15:36.810Z,101277.78
2022-08-06T17:18:42.914Z,101273.81
2022-08-06T17:21:59.201Z,101277.44
2022-08-06T17:25:06.247Z,101285.38
2022-08-06T17:28:12.445Z,101275.09
2022-08-06T17:34:42.475Z,101276.63
2022-08-06T17:37:52.649Z,101288.00
2022-08-06T17:40:56.760Z,101274.75
2022-08-06T17:44:03.477Z,101278.31
2022-08-06T17:47:09.963Z,101299.34
2022-08-06T17:50:16.724Z,101299.59
2022-08-06T17:53:21.844Z,101293.00
2022-08-06T17:56:29.172Z,101303.72
2022-08-06T17:59:34.552Z,101300.16
2022-08-06T18:02:49.081Z,101299.84
2022-08-06T18:05:56.912Z,101301.81
2022-08-06T18:10:09.439Z,101296.66
2022-08-06T18:12:26.774Z,101308.97
2022-08-06T18:15:40.433Z,101304.81
2022-08-06T18:18:46.956Z,101311.97
2022-08-06T18:21:52.203Z,101316.94
2022-08-06T18:24:56.918Z,101315.34
2022-08-06T18:28:05.633Z,101317.53
2022-08-06T18:31:10.651Z,101311.81
2022-08-06T18:34:16.144Z,101319.34
2022-08-06T18:37:24.978Z,101321.34
2022-08-06T18:40:40.761Z,101318.34
2022-08-06T18:43:54.654Z,101324.72
2022-08-06T18:47:03.549Z,101322.94
2022-08-06T18:50:16.625Z,101323.72
2022-08-06T18:53:26.799Z,101328.91
2022-08-06T18:56:49.607Z,101329.66
2022-08-06T18:59:55.858Z,101329.66
2022-08-06T19:03:01.896Z,101328.31
2022-08-06T19:06:06.404Z,101333.25
2022-08-06T19:09:10.569Z,101331.06
2022-08-06T19:12:21.003Z,101340.16
2022-08-06T19:15:44.996Z,101338.78
2022-08-06T19:18:51.055Z,101334.22
2022-08-06T19:22:01.739Z,101335.56
2022-08-06T19:25:09.515Z,101340.34
2022-08-06T19:28:36.444Z,101343.47
2022-08-06T19:31:41.806Z,101341.31
2022-08-06T19:34:47.827Z,101336.75
2022-08-06T19:37:59.868Z,101338.31
2022-08-06T19:41:06.880Z,101339.09
2022-08-06T19:44:24.410Z,101334.72
2022-08-06T19:47:38.860Z,101344.00
2022-08-06T19:50:44.434Z,101343.81
2022-08-06T19:53:55.784Z,101342.56
2022-08-06T19:57:00.622Z,101346.34
2022-08-06T20:00:56.061Z,101355.41
2022-08-06T20:03:31.749Z,101352.63
2022-08-06T20:07:01.044Z,101359.13
2022-08-06T20:10:03.182Z,101354.75
2022-08-06T20:13:09.396Z,101359.31
2022-08-06T20:16:13.449Z,101360.69
2022-08-06T20:19:17.389Z,101363.19
2022-08-06T20:22:42.286Z,101368.91
2022-08-06T20:26:09.114Z,101368.50
2022-08-06T20:29:21.858Z,101370.00
2022-08-06T20:32:26.495Z,101375.31
2022-08-06T20:35:32.561Z,101382.44
2022-08-06T20:38:43.686Z,101373.50
2022-08-06T20:42:02.322Z,101386.94
2022-08-06T20:45:20.770Z,101385.09
2022-08-06T20:48:28.509Z,101381.72
2022-08-06T20:51:32.677Z,101378.13
2022-08-06T20:54:38.475Z,101373.16
2022-08-06T20:57:48.521Z,101381.22
2022-08-06T21:00:53.129Z,101377.09
2022-08-06T21:05:15.310Z,101379.44
2022-08-06T21:07:31.373Z,101376.44
2022-08-06T21:10:41.573Z,101375.97
2022-08-06T21:14:03.988Z,101373.31
2022-08-06T21:17:13.315Z,101372.09
2022-08-06T21:20:23.133Z,101368.94
2022-08-06T21:23:55.476Z,101365.09
2022-08-06T21:26:51.973Z,101375.13
2022-08-06T21:30:09.102Z,101377.53
2022-08-06T21:33:17.083Z,101378.06
2022-08-06T21:36:26.187Z,101371.91
2022-08-06T21:39:55.855Z,101370.31
2022-08-06T21:42:57.835Z,101369.47
2022-08-06T21:46:04.793Z,101373.22
2022-08-06T21:49:10.982Z,101380.50
2022-08-06T21:52:28.475Z,101369.03
2022-08-06T21:56:38.868Z,101371.50
2022-08-06T21:59:00.668Z,101370.25
2022-08-06T22:02:09.842Z,101365.34
2022-08-06T22:06:20.125Z,101371.78
2022-08-06T22:08:54.306Z,101376.13
2022-08-06T22:12:40.459Z,101369.06
2022-08-06T22:15:24.692Z,101368.22
2022-08-06T22:18:35.154Z,101367.16
2022-08-06T22:21:49.677Z,101367.50
2022-08-06T22:24:55.285Z,101379.53
2022-08-06T22:28:02.126Z,101372.19
2022-08-06T22:31:08.148Z,101364.22
2022-08-06T22:34:12.633Z,101367.34
2022-08-06T22:37:18.992Z,101368.94
2022-08-06T22:40:45.533Z,101368.78
2022-08-06T22:43:57.270Z,101370.16
2022-08-06T22:47:01.696Z,101373.63
2022-08-06T22:50:07.249Z,101372.38
2022-08-06T22:54:29.562Z,101366.78
2022-08-06T22:56:39.142Z,101363.81
2022-08-06T23:00:11.070Z,101365.72
2022-08-06T23:03:13.342Z,101365.94
2022-08-06T23:06:18.731Z,101363.38
2022-08-06T23:09:32.981Z,101368.84
2022-08-06T23:12:37.899Z,101362.66
2022-08-06T23:15:42.737Z,101362.00
2022-08-06T23:18:50.821Z,101368.47
2022-08-06T23:22:01.929Z,101368.22
2022-08-06T23:25:59.401Z,101360.53
2022-08-06T23:28:34.087Z,101367.16
2022-08-06T23:31:39.268Z,101363.13
2022-08-06T23:34:43.451Z,101359.53
2022-08-06T23:37:55.387Z,101349.00
2022-08-06T23:41:16.149Z,101354.31
2022-08-06T23:44:23.903Z,101346.78
2022-08-06T23:47:54.998Z,101354.31
2022-08-06T23:50:56.916Z,101358.50
2022-08-06T23:54:07.544Z,101351.53
2022-08-06T23:57:17.627Z,101351.53
